sensor_id;sensor_type;location;lat;lon;timestamp;P1;durP1;ratioP1;P2;durP2;ratioP2
37843;SDS011;63793;57.632;18.292;2023-03-01T00:01:03;1.58;;;0.93;;
37843;SDS011;63793;57.632;18.292;2023-03-01T00:03:31;1.85;;;1.02;;
37843;SDS011;63793;57.632;18.292;2023-03-01T00:05:59;2.00;;;0.75;;
37843;SDS011;63793;57.632;18.292;2023-03-01T00:08:26;2.22;;;1.00;;
37843;SDS011;63793;57.632;18.292;2023-03-01T00:11:01;2.05;;;0.80;;
37843;SDS011;63793;57.632;18.292;2023-03-01T00:13:33;2.67;;;1.35;;
37843;SDS011;63793;57.632;18.292;2023-03-01T00:16:04;1.33;;;0.70;;
37843;SDS011;63793;57.632;18.292;2023-03-01T00:18:42;1.60;;;0.90;;
37843;SDS011;63793;57.632;18.292;2023-03-01T00:21:09;4.82;;;1.65;;
37843;SDS011;63793;57.632;18.292;2023-03-01T00:23:36;2.15;;;1.02;;
37843;SDS011;63793;57.632;18.292;2023-03-01T00:26:08;1.60;;;0.70;;
37843;SDS011;63793;57.632;18.292;2023-03-01T00:28:39;3.08;;;0.70;;
37843;SDS011;63793;57.632;18.292;2023-03-01T00:31:07;0.70;;;0.55;;
37843;SDS011;63793;57.632;18.292;2023-03-01T00:33:37;2.20;;;1.08;;
37843;SDS011;63793;57.632;18.292;2023-03-01T00:36:04;3.70;;;0.93;;
37843;SDS011;63793;57.632;18.292;2023-03-01T00:38:35;3.72;;;0.90;;
37843;SDS011;63793;57.632;18.292;2023-03-01T00:41:04;1.45;;;0.88;;
37843;SDS011;63793;57.632;18.292;2023-03-01T00:43:32;1.95;;;0.75;;
37843;SDS011;63793;57.632;18.292;2023-03-01T00:46:07;2.40;;;1.00;;
37843;SDS011;63793;57.632;18.292;2023-03-01T00:48:36;1.45;;;1.10;;
37843;SDS011;63793;57.632;18.292;2023-03-01T00:51:05;1.63;;;0.77;;
37843;SDS011;63793;57.632;18.292;2023-03-01T00:53:33;1.45;;;0.63;;
37843;SDS011;63793;57.632;18.292;2023-03-01T00:56:00;0.75;;;0.75;;
37843;SDS011;63793;57.632;18.292;2023-03-01T00:58:27;1.95;;;0.70;;
37843;SDS011;63793;57.632;18.292;2023-03-01T01:00:55;1.10;;;0.63;;
37843;SDS011;63793;57.632;18.292;2023-03-01T01:03:21;1.35;;;0.70;;
37843;SDS011;63793;57.632;18.292;2023-03-01T01:05:51;2.50;;;1.10;;
37843;SDS011;63793;57.632;18.292;2023-03-01T01:08:19;1.65;;;0.85;;
37843;SDS011;63793;57.632;18.292;2023-03-01T01:10:46;1.25;;;0.70;;
37843;SDS011;63793;57.632;18.292;2023-03-01T01:13:13;3.40;;;1.20;;
37843;SDS011;63793;57.632;18.292;2023-03-01T01:15:40;1.13;;;0.95;;
37843;SDS011;63793;57.632;18.292;2023-03-01T01:18:07;2.70;;;0.90;;
37843;SDS011;63793;57.632;18.292;2023-03-01T01:20:34;2.92;;;1.00;;
37843;SDS011;63793;57.632;18.292;2023-03-01T01:23:04;0.93;;;0.70;;
37843;SDS011;63793;57.632;18.292;2023-03-01T01:25:33;1.10;;;0.70;;
37843;SDS011;63793;57.632;18.292;2023-03-01T01:28:01;1.33;;;0.63;;
37843;SDS011;63793;57.632;18.292;2023-03-01T01:30:28;3.40;;;0.88;;
37843;SDS011;63793;57.632;18.292;2023-03-01T01:32:55;3.70;;;0.75;;
37843;SDS011;63793;57.632;18.292;2023-03-01T01:35:22;2.28;;;0.82;;
37843;SDS011;63793;57.632;18.292;2023-03-01T01:37:49;3.05;;;1.48;;
37843;SDS011;63793;57.632;18.292;2023-03-01T01:40:16;1.13;;;0.98;;
37843;SDS011;63793;57.632;18.292;2023-03-01T01:42:43;0.77;;;0.50;;
37843;SDS011;63793;57.632;18.292;2023-03-01T01:45:24;3.17;;;0.77;;
37843;SDS011;63793;57.632;18.292;2023-03-01T01:48:03;5.97;;;1.05;;
37843;SDS011;63793;57.632;18.292;2023-03-01T01:50:36;2.92;;;1.30;;
37843;SDS011;63793;57.632;18.292;2023-03-01T01:53:11;2.78;;;0.80;;
37843;SDS011;63793;57.632;18.292;2023-03-01T01:55:44;1.17;;;0.73;;
37843;SDS011;63793;57.632;18.292;2023-03-01T01:58:15;1.92;;;1.33;;
37843;SDS011;63793;57.632;18.292;2023-03-01T02:00:45;2.90;;;1.05;;
37843;SDS011;63793;57.632;18.292;2023-03-01T02:03:14;3.08;;;0.80;;
37843;SDS011;63793;57.632;18.292;2023-03-01T02:05:53;1.70;;;0.55;;
37843;SDS011;63793;57.632;18.292;2023-03-01T02:08:32;1.83;;;1.20;;
37843;SDS011;63793;57.632;18.292;2023-03-01T02:11:03;0.98;;;0.70;;
37843;SDS011;63793;57.632;18.292;2023-03-01T02:13:32;3.22;;;1.05;;
37843;SDS011;63793;57.632;18.292;2023-03-01T02:16:10;1.02;;;0.63;;
37843;SDS011;63793;57.632;18.292;2023-03-01T02:18:39;1.20;;;0.88;;
37843;SDS011;63793;57.632;18.292;2023-03-01T02:21:11;0.95;;;0.70;;
37843;SDS011;63793;57.632;18.292;2023-03-01T02:23:48;3.05;;;1.00;;
37843;SDS011;63793;57.632;18.292;2023-03-01T02:26:18;4.70;;;0.70;;
37843;SDS011;63793;57.632;18.292;2023-03-01T02:28:52;2.65;;;0.50;;
37843;SDS011;63793;57.632;18.292;2023-03-01T02:31:20;1.45;;;0.68;;
37843;SDS011;63793;57.632;18.292;2023-03-01T02:34:06;1.58;;;0.70;;
37843;SDS011;63793;57.632;18.292;2023-03-01T02:36:36;1.30;;;0.70;;
37843;SDS011;63793;57.632;18.292;2023-03-01T02:41:34;1.80;;;0.63;;
37843;SDS011;63793;57.632;18.292;2023-03-01T02:44:03;3.42;;;0.88;;
37843;SDS011;63793;57.632;18.292;2023-03-01T02:46:31;2.75;;;0.88;;
37843;SDS011;63793;57.632;18.292;2023-03-01T02:48:59;3.72;;;1.35;;
37843;SDS011;63793;57.632;18.292;2023-03-01T02:51:30;1.92;;;1.33;;
37843;SDS011;63793;57.632;18.292;2023-03-01T02:54:20;1.65;;;0.80;;
37843;SDS011;63793;57.632;18.292;2023-03-01T02:56:58;4.07;;;0.88;;
37843;SDS011;63793;57.632;18.292;2023-03-01T02:59:29;4.03;;;0.98;;
37843;SDS011;63793;57.632;18.292;2023-03-01T03:02:00;1.92;;;0.93;;
37843;SDS011;63793;57.632;18.292;2023-03-01T03:04:27;2.00;;;0.95;;
37843;SDS011;63793;57.632;18.292;2023-03-01T03:06:54;1.83;;;0.80;;
37843;SDS011;63793;57.632;18.292;2023-03-01T03:09:21;1.40;;;0.70;;
37843;SDS011;63793;57.632;18.292;2023-03-01T03:11:48;3.50;;;2.45;;
37843;SDS011;63793;57.632;18.292;2023-03-01T03:14:16;6.82;;;1.02;;
37843;SDS011;63793;57.632;18.292;2023-03-01T03:16:46;5.13;;;1.00;;
37843;SDS011;63793;57.632;18.292;2023-03-01T03:19:16;2.10;;;0.90;;
37843;SDS011;63793;57.632;18.292;2023-03-01T03:21:43;1.50;;;0.95;;
37843;SDS011;63793;57.632;18.292;2023-03-01T03:24:10;1.73;;;0.90;;
37843;SDS011;63793;57.632;18.292;2023-03-01T03:26:37;2.78;;;1.40;;
37843;SDS011;63793;57.632;18.292;2023-03-01T03:29:04;1.40;;;0.80;;
37843;SDS011;63793;57.632;18.292;2023-03-01T03:31:31;3.70;;;1.10;;
37843;SDS011;63793;57.632;18.292;2023-03-01T03:33:58;4.05;;;1.27;;
37843;SDS011;63793;57.632;18.292;2023-03-01T03:36:25;3.35;;;1.92;;
37843;SDS011;63793;57.632;18.292;2023-03-01T03:38:52;4.95;;;1.33;;
37843;SDS011;63793;57.632;18.292;2023-03-01T03:41:19;2.00;;;1.15;;
37843;SDS011;63793;57.632;18.292;2023-03-01T03:43:46;2.28;;;0.85;;
37843;SDS011;63793;57.632;18.292;2023-03-01T03:46:13;2.47;;;0.98;;
37843;SDS011;63793;57.632;18.292;2023-03-01T03:48:41;6.38;;;1.10;;
37843;SDS011;63793;57.632;18.292;2023-03-01T03:51:11;4.78;;;1.00;;
37843;SDS011;63793;57.632;18.292;2023-03-01T03:53:43;4.03;;;1.83;;
37843;SDS011;63793;57.632;18.292;2023-03-01T03:56:11;2.75;;;1.25;;
37843;SDS011;63793;57.632;18.292;2023-03-01T03:58:38;2.72;;;0.80;;
37843;SDS011;63793;57.632;18.292;2023-03-01T04:01:05;3.42;;;1.40;;
37843;SDS011;63793;57.632;18.292;2023-03-01T04:03:32;3.97;;;0.85;;
37843;SDS011;63793;57.632;18.292;2023-03-01T04:05:59;4.13;;;1.10;;
37843;SDS011;63793;57.632;18.292;2023-03-01T04:08:27;3.47;;;1.45;;
37843;SDS011;63793;57.632;18.292;2023-03-01T04:11:01;5.28;;;0.60;;
37843;SDS011;63793;57.632;18.292;2023-03-01T04:13:50;11.27;;;2.05;;
37843;SDS011;63793;57.632;18.292;2023-03-01T04:16:18;5.82;;;1.40;;
37843;SDS011;63793;57.632;18.292;2023-03-01T04:18:47;3.50;;;1.92;;
37843;SDS011;63793;57.632;18.292;2023-03-01T04:21:14;4.32;;;1.42;;
37843;SDS011;63793;57.632;18.292;2023-03-01T04:23:41;5.97;;;1.00;;
37843;SDS011;63793;57.632;18.292;2023-03-01T04:26:09;2.25;;;0.70;;
37843;SDS011;63793;57.632;18.292;2023-03-01T04:28:37;9.45;;;2.35;;
37843;SDS011;63793;57.632;18.292;2023-03-01T04:31:12;5.97;;;1.67;;
37843;SDS011;63793;57.632;18.292;2023-03-01T04:33:43;5.75;;;0.90;;
37843;SDS011;63793;57.632;18.292;2023-03-01T04:36:13;4.75;;;1.20;;
37843;SDS011;63793;57.632;18.292;2023-03-01T04:38:41;5.63;;;1.52;;
37843;SDS011;63793;57.632;18.292;2023-03-01T04:41:09;4.55;;;1.13;;
37843;SDS011;63793;57.632;18.292;2023-03-01T04:43:37;2.35;;;1.20;;
37843;SDS011;63793;57.632;18.292;2023-03-01T04:46:05;4.97;;;1.13;;
37843;SDS011;63793;57.632;18.292;2023-03-01T04:48:36;2.50;;;1.25;;
37843;SDS011;63793;57.632;18.292;2023-03-01T04:51:03;5.10;;;1.33;;
37843;SDS011;63793;57.632;18.292;2023-03-01T04:53:32;6.32;;;0.88;;
37843;SDS011;63793;57.632;18.292;2023-03-01T04:55:59;4.25;;;2.50;;
37843;SDS011;63793;57.632;18.292;2023-03-01T04:58:26;5.05;;;1.08;;
37843;SDS011;63793;57.632;18.292;2023-03-01T05:00:54;4.65;;;0.70;;
37843;SDS011;63793;57.632;18.292;2023-03-01T05:03:21;6.35;;;2.25;;
37843;SDS011;63793;57.632;18.292;2023-03-01T05:05:50;4.03;;;0.80;;
37843;SDS011;63793;57.632;18.292;2023-03-01T05:08:18;2.67;;;0.63;;
37843;SDS011;63793;57.632;18.292;2023-03-01T05:10:50;2.55;;;1.17;;
37843;SDS011;63793;57.632;18.292;2023-03-01T05:13:19;1.60;;;0.65;;
37843;SDS011;63793;57.632;18.292;2023-03-01T05:15:48;6.65;;;1.55;;
37843;SDS011;63793;57.632;18.292;2023-03-01T05:18:19;4.88;;;1.75;;
37843;SDS011;63793;57.632;18.292;2023-03-01T05:20:47;7.88;;;1.80;;
37843;SDS011;63793;57.632;18.292;2023-03-01T05:23:13;2.92;;;0.85;;
37843;SDS011;63793;57.632;18.292;2023-03-01T05:25:40;5.30;;;1.30;;
37843;SDS011;63793;57.632;18.292;2023-03-01T05:28:10;1.65;;;0.75;;
37843;SDS011;63793;57.632;18.292;2023-03-01T05:30:38;2.75;;;0.70;;
37843;SDS011;63793;57.632;18.292;2023-03-01T05:33:05;6.60;;;1.08;;
37843;SDS011;63793;57.632;18.292;2023-03-01T05:35:40;3.60;;;0.75;;
37843;SDS011;63793;57.632;18.292;2023-03-01T05:38:09;13.02;;;1.42;;
37843;SDS011;63793;57.632;18.292;2023-03-01T05:40:40;7.40;;;1.27;;
37843;SDS011;63793;57.632;18.292;2023-03-01T05:43:08;8.23;;;1.20;;
37843;SDS011;63793;57.632;18.292;2023-03-01T05:45:36;3.95;;;1.17;;
37843;SDS011;63793;57.632;18.292;2023-03-01T05:48:05;4.95;;;0.90;;
37843;SDS011;63793;57.632;18.292;2023-03-01T05:50:34;3.38;;;0.95;;
37843;SDS011;63793;57.632;18.292;2023-03-01T05:53:03;4.72;;;0.60;;
37843;SDS011;63793;57.632;18.292;2023-03-01T05:55:38;2.15;;;0.50;;
37843;SDS011;63793;57.632;18.292;2023-03-01T05:58:06;4.80;;;0.80;;
37843;SDS011;63793;57.632;18.292;2023-03-01T06:00:35;3.42;;;0.93;;
37843;SDS011;63793;57.632;18.292;2023-03-01T06:03:03;3.00;;;1.40;;
37843;SDS011;63793;57.632;18.292;2023-03-01T06:05:30;3.60;;;0.90;;
37843;SDS011;63793;57.632;18.292;2023-03-01T06:08:00;2.47;;;1.13;;
37843;SDS011;63793;57.632;18.292;2023-03-01T06:10:28;3.88;;;0.98;;
37843;SDS011;63793;57.632;18.292;2023-03-01T06:12:55;4.57;;;1.17;;
37843;SDS011;63793;57.632;18.292;2023-03-01T06:15:23;9.75;;;1.33;;
37843;SDS011;63793;57.632;18.292;2023-03-01T06:17:51;7.32;;;1.17;;
37843;SDS011;63793;57.632;18.292;2023-03-01T06:20:23;2.17;;;0.63;;
37843;SDS011;63793;57.632;18.292;2023-03-01T06:22:52;2.80;;;0.60;;
37843;SDS011;63793;57.632;18.292;2023-03-01T06:25:20;8.13;;;0.77;;
37843;SDS011;63793;57.632;18.292;2023-03-01T06:27:49;5.13;;;1.42;;
37843;SDS011;63793;57.632;18.292;2023-03-01T06:30:17;6.45;;;0.88;;
37843;SDS011;63793;57.632;18.292;2023-03-01T06:32:45;4.93;;;0.80;;
37843;SDS011;63793;57.632;18.292;2023-03-01T06:35:12;6.93;;;0.98;;
37843;SDS011;63793;57.632;18.292;2023-03-01T06:37:40;8.40;;;0.93;;
37843;SDS011;63793;57.632;18.292;2023-03-01T06:40:08;8.35;;;3.40;;
37843;SDS011;63793;57.632;18.292;2023-03-01T06:42:38;11.05;;;1.33;;
37843;SDS011;63793;57.632;18.292;2023-03-01T06:45:06;4.78;;;1.20;;
37843;SDS011;63793;57.632;18.292;2023-03-01T06:47:34;3.35;;;0.75;;
37843;SDS011;63793;57.632;18.292;2023-03-01T06:50:02;5.55;;;1.55;;
37843;SDS011;63793;57.632;18.292;2023-03-01T06:52:29;7.03;;;2.10;;
37843;SDS011;63793;57.632;18.292;2023-03-01T06:54:56;6.35;;;2.15;;
37843;SDS011;63793;57.632;18.292;2023-03-01T06:57:23;4.47;;;1.27;;
37843;SDS011;63793;57.632;18.292;2023-03-01T06:59:50;4.97;;;1.95;;
37843;SDS011;63793;57.632;18.292;2023-03-01T07:02:17;5.50;;;0.93;;
37843;SDS011;63793;57.632;18.292;2023-03-01T07:04:44;5.90;;;2.15;;
37843;SDS011;63793;57.632;18.292;2023-03-01T07:07:11;4.20;;;1.15;;
37843;SDS011;63793;57.632;18.292;2023-03-01T07:09:38;4.07;;;1.52;;
37843;SDS011;63793;57.632;18.292;2023-03-01T07:12:05;1.30;;;0.60;;
37843;SDS011;63793;57.632;18.292;2023-03-01T07:14:32;9.30;;;1.80;;
37843;SDS011;63793;57.632;18.292;2023-03-01T07:16:59;4.68;;;1.48;;
37843;SDS011;63793;57.632;18.292;2023-03-01T07:19:26;3.35;;;1.05;;
37843;SDS011;63793;57.632;18.292;2023-03-01T07:21:53;4.68;;;1.05;;
37843;SDS011;63793;57.632;18.292;2023-03-01T07:24:21;4.70;;;0.90;;
37843;SDS011;63793;57.632;18.292;2023-03-01T07:26:49;2.10;;;0.60;;
37843;SDS011;63793;57.632;18.292;2023-03-01T07:29:16;5.30;;;0.70;;
37843;SDS011;63793;57.632;18.292;2023-03-01T07:31:44;2.83;;;0.80;;
37843;SDS011;63793;57.632;18.292;2023-03-01T07:34:11;3.95;;;1.27;;
37843;SDS011;63793;57.632;18.292;2023-03-01T07:36:38;4.68;;;1.08;;
37843;SDS011;63793;57.632;18.292;2023-03-01T07:39:05;3.05;;;0.82;;
37843;SDS011;63793;57.632;18.292;2023-03-01T07:41:33;5.78;;;0.98;;
37843;SDS011;63793;57.632;18.292;2023-03-01T07:44:00;4.68;;;1.25;;
37843;SDS011;63793;57.632;18.292;2023-03-01T07:46:26;7.18;;;0.85;;
37843;SDS011;63793;57.632;18.292;2023-03-01T07:48:53;3.33;;;0.98;;
37843;SDS011;63793;57.632;18.292;2023-03-01T07:51:20;5.38;;;0.80;;
37843;SDS011;63793;57.632;18.292;2023-03-01T07:53:47;1.38;;;0.70;;
37843;SDS011;63793;57.632;18.292;2023-03-01T07:56:15;3.42;;;1.52;;
37843;SDS011;63793;57.632;18.292;2023-03-01T07:58:45;4.15;;;0.90;;
37843;SDS011;63793;57.632;18.292;2023-03-01T08:01:16;2.58;;;1.15;;
37843;SDS011;63793;57.632;18.292;2023-03-01T08:03:45;1.88;;;0.70;;
37843;SDS011;63793;57.632;18.292;2023-03-01T08:06:12;7.07;;;2.03;;
37843;SDS011;63793;57.632;18.292;2023-03-01T08:08:40;5.07;;;1.33;;
37843;SDS011;63793;57.632;18.292;2023-03-01T08:11:09;4.93;;;1.92;;
37843;SDS011;63793;57.632;18.292;2023-03-01T08:13:37;9.18;;;1.02;;
37843;SDS011;63793;57.632;18.292;2023-03-01T08:16:09;2.25;;;0.75;;
37843;SDS011;63793;57.632;18.292;2023-03-01T08:18:38;3.38;;;0.40;;
37843;SDS011;63793;57.632;18.292;2023-03-01T08:21:09;3.70;;;0.90;;
37843;SDS011;63793;57.632;18.292;2023-03-01T08:23:39;3.80;;;0.60;;
37843;SDS011;63793;57.632;18.292;2023-03-01T08:26:11;7.25;;;1.48;;
37843;SDS011;63793;57.632;18.292;2023-03-01T08:28:43;4.95;;;1.00;;
37843;SDS011;63793;57.632;18.292;2023-03-01T08:31:20;1.75;;;0.82;;
37843;SDS011;63793;57.632;18.292;2023-03-01T08:33:53;4.85;;;0.77;;
37843;SDS011;63793;57.632;18.292;2023-03-01T08:36:23;2.30;;;0.85;;
37843;SDS011;63793;57.632;18.292;2023-03-01T08:38:51;2.15;;;1.00;;
37843;SDS011;63793;57.632;18.292;2023-03-01T08:41:18;2.58;;;0.30;;
37843;SDS011;63793;57.632;18.292;2023-03-01T08:43:46;6.00;;;0.75;;
37843;SDS011;63793;57.632;18.292;2023-03-01T08:46:13;2.13;;;0.52;;
37843;SDS011;63793;57.632;18.292;2023-03-01T08:48:40;4.28;;;0.70;;
37843;SDS011;63793;57.632;18.292;2023-03-01T08:51:10;1.10;;;0.50;;
37843;SDS011;63793;57.632;18.292;2023-03-01T08:53:39;3.58;;;1.50;;
37843;SDS011;63793;57.632;18.292;2023-03-01T08:56:07;0.73;;;0.50;;
37843;SDS011;63793;57.632;18.292;2023-03-01T08:58:35;2.58;;;0.88;;
37843;SDS011;63793;57.632;18.292;2023-03-01T09:01:06;2.35;;;0.90;;
37843;SDS011;63793;57.632;18.292;2023-03-01T09:03:37;2.88;;;1.65;;
37843;SDS011;63793;57.632;18.292;2023-03-01T09:06:05;4.53;;;1.00;;
37843;SDS011;63793;57.632;18.292;2023-03-01T09:08:34;0.90;;;0.45;;
37843;SDS011;63793;57.632;18.292;2023-03-01T09:11:03;1.65;;;0.52;;
37843;SDS011;63793;57.632;18.292;2023-03-01T09:13:30;2.20;;;0.50;;
37843;SDS011;63793;57.632;18.292;2023-03-01T09:15:57;1.70;;;0.70;;
37843;SDS011;63793;57.632;18.292;2023-03-01T09:18:25;2.45;;;0.77;;
37843;SDS011;63793;57.632;18.292;2023-03-01T09:20:52;2.97;;;0.73;;
37843;SDS011;63793;57.632;18.292;2023-03-01T09:23:21;3.72;;;0.57;;
37843;SDS011;63793;57.632;18.292;2023-03-01T09:25:48;3.65;;;0.50;;
37843;SDS011;63793;57.632;18.292;2023-03-01T09:28:14;1.23;;;0.40;;
37843;SDS011;63793;57.632;18.292;2023-03-01T09:30:57;1.80;;;0.52;;
37843;SDS011;63793;57.632;18.292;2023-03-01T09:33:26;6.13;;;1.05;;
37843;SDS011;63793;57.632;18.292;2023-03-01T09:36:12;1.23;;;0.65;;
37843;SDS011;63793;57.632;18.292;2023-03-01T09:38:41;1.85;;;0.50;;
37843;SDS011;63793;57.632;18.292;2023-03-01T09:43:58;6.68;;;0.60;;
37843;SDS011;63793;57.632;18.292;2023-03-01T09:46:31;2.42;;;0.82;;
37843;SDS011;63793;57.632;18.292;2023-03-01T09:49:05;1.25;;;0.60;;
37843;SDS011;63793;57.632;18.292;2023-03-01T09:51:48;2.83;;;0.70;;
37843;SDS011;63793;57.632;18.292;2023-03-01T09:54:20;6.22;;;1.75;;
37843;SDS011;63793;57.632;18.292;2023-03-01T09:59:25;2.33;;;0.47;;
37843;SDS011;63793;57.632;18.292;2023-03-01T10:02:18;7.55;;;1.05;;
37843;SDS011;63793;57.632;18.292;2023-03-01T10:04:51;8.57;;;1.70;;
37843;SDS011;63793;57.632;18.292;2023-03-01T10:10:23;6.13;;;0.65;;
37843;SDS011;63793;57.632;18.292;2023-03-01T10:12:54;7.47;;;0.85;;
37843;SDS011;63793;57.632;18.292;2023-03-01T10:15:25;3.83;;;0.60;;
37843;SDS011;63793;57.632;18.292;2023-03-01T10:18:16;14.20;;;1.83;;
37843;SDS011;63793;57.632;18.292;2023-03-01T10:20:59;5.65;;;0.88;;
37843;SDS011;63793;57.632;18.292;2023-03-01T10:23:29;3.22;;;0.47;;
37843;SDS011;63793;57.632;18.292;2023-03-01T10:31:13;7.55;;;2.72;;
37843;SDS011;63793;57.632;18.292;2023-03-01T10:33:44;4.28;;;0.50;;
37843;SDS011;63793;57.632;18.292;2023-03-01T10:36:14;7.68;;;0.68;;
37843;SDS011;63793;57.632;18.292;2023-03-01T10:38:51;5.32;;;0.88;;
37843;SDS011;63793;57.632;18.292;2023-03-01T10:41:21;8.15;;;0.77;;
37843;SDS011;63793;57.632;18.292;2023-03-01T10:43:51;7.32;;;0.88;;
37843;SDS011;63793;57.632;18.292;2023-03-01T10:51:43;2.83;;;1.38;;
37843;SDS011;63793;57.632;18.292;2023-03-01T10:54:31;5.50;;;0.77;;
37843;SDS011;63793;57.632;18.292;2023-03-01T10:57:00;1.88;;;0.73;;
37843;SDS011;63793;57.632;18.292;2023-03-01T11:02:12;4.53;;;0.73;;
37843;SDS011;63793;57.632;18.292;2023-03-01T11:05:37;2.97;;;0.70;;
37843;SDS011;63793;57.632;18.292;2023-03-01T11:07:53;3.25;;;0.90;;
37843;SDS011;63793;57.632;18.292;2023-03-01T11:10:24;9.27;;;1.80;;
37843;SDS011;63793;57.632;18.292;2023-03-01T11:15:31;7.00;;;0.95;;
37843;SDS011;63793;57.632;18.292;2023-03-01T11:17:58;6.38;;;1.10;;
37843;SDS011;63793;57.632;18.292;2023-03-01T11:20:39;6.22;;;0.85;;
37843;SDS011;63793;57.632;18.292;2023-03-01T11:23:10;5.95;;;1.27;;
37843;SDS011;63793;57.632;18.292;2023-03-01T11:25:41;12.65;;;1.98;;
37843;SDS011;63793;57.632;18.292;2023-03-01T11:28:13;14.50;;;1.55;;
37843;SDS011;63793;57.632;18.292;2023-03-01T11:30:56;6.53;;;1.30;;
37843;SDS011;63793;57.632;18.292;2023-03-01T11:33:37;7.07;;;2.15;;
37843;SDS011;63793;57.632;18.292;2023-03-01T11:41:58;7.22;;;0.75;;
37843;SDS011;63793;57.632;18.292;2023-03-01T11:44:44;5.30;;;2.17;;
37843;SDS011;63793;57.632;18.292;2023-03-01T11:47:30;9.23;;;1.55;;
37843;SDS011;63793;57.632;18.292;2023-03-01T11:50:02;13.65;;;1.27;;
37843;SDS011;63793;57.632;18.292;2023-03-01T12:06:24;5.45;;;1.00;;
37843;SDS011;63793;57.632;18.292;2023-03-01T12:09:02;8.82;;;0.80;;
37843;SDS011;63793;57.632;18.292;2023-03-01T12:23:16;17.15;;;1.83;;
37843;SDS011;63793;57.632;18.292;2023-03-01T12:40:23;14.77;;;2.05;;
37843;SDS011;63793;57.632;18.292;2023-03-01T12:49:00;12.20;;;1.70;;
37843;SDS011;63793;57.632;18.292;2023-03-01T12:51:56;9.07;;;1.30;;
37843;SDS011;63793;57.632;18.292;2023-03-01T12:54:36;22.30;;;4.85;;
37843;SDS011;63793;57.632;18.292;2023-03-01T12:57:15;10.30;;;1.35;;
37843;SDS011;63793;57.632;18.292;2023-03-01T13:02:38;8.52;;;0.90;;
37843;SDS011;63793;57.632;18.292;2023-03-01T13:13:40;9.77;;;1.17;;
37843;SDS011;63793;57.632;18.292;2023-03-01T13:18:47;7.97;;;1.30;;
37843;SDS011;63793;57.632;18.292;2023-03-01T13:21:14;6.95;;;0.63;;
37843;SDS011;63793;57.632;18.292;2023-03-01T13:23:56;12.70;;;1.70;;
37843;SDS011;63793;57.632;18.292;2023-03-01T13:26:23;4.97;;;1.98;;
37843;SDS011;63793;57.632;18.292;2023-03-01T13:28:51;7.93;;;1.13;;
37843;SDS011;63793;57.632;18.292;2023-03-01T13:34:02;7.07;;;0.65;;
37843;SDS011;63793;57.632;18.292;2023-03-01T13:45:14;5.80;;;0.95;;
37843;SDS011;63793;57.632;18.292;2023-03-01T13:47:45;6.60;;;1.00;;
37843;SDS011;63793;57.632;18.292;2023-03-01T13:50:16;6.35;;;1.00;;
37843;SDS011;63793;57.632;18.292;2023-03-01T13:53:00;6.18;;;0.98;;
37843;SDS011;63793;57.632;18.292;2023-03-01T13:55:55;10.63;;;1.20;;
37843;SDS011;63793;57.632;18.292;2023-03-01T13:58:29;5.93;;;2.78;;
37843;SDS011;63793;57.632;18.292;2023-03-01T14:01:02;7.53;;;1.50;;
37843;SDS011;63793;57.632;18.292;2023-03-01T14:06:03;23.40;;;4.25;;
37843;SDS011;63793;57.632;18.292;2023-03-01T14:08:48;16.90;;;2.55;;
37843;SDS011;63793;57.632;18.292;2023-03-01T14:15:04;21.27;;;2.83;;
37843;SDS011;63793;57.632;18.292;2023-03-01T14:20:09;17.33;;;2.05;;
37843;SDS011;63793;57.632;18.292;2023-03-01T14:22:43;19.33;;;2.15;;
37843;SDS011;63793;57.632;18.292;2023-03-01T14:25:22;17.48;;;1.95;;
37843;SDS011;63793;57.632;18.292;2023-03-01T14:30:32;13.30;;;2.70;;
37843;SDS011;63793;57.632;18.292;2023-03-01T14:33:06;25.73;;;6.15;;
37843;SDS011;63793;57.632;18.292;2023-03-01T14:36:29;13.98;;;2.72;;
37843;SDS011;63793;57.632;18.292;2023-03-01T14:38:38;14.98;;;2.13;;
37843;SDS011;63793;57.632;18.292;2023-03-01T14:41:07;13.05;;;1.77;;
37843;SDS011;63793;57.632;18.292;2023-03-01T14:46:05;21.83;;;2.42;;
37843;SDS011;63793;57.632;18.292;2023-03-01T14:48:32;31.63;;;3.85;;
37843;SDS011;63793;57.632;18.292;2023-03-01T14:50:59;22.05;;;3.30;;
37843;SDS011;63793;57.632;18.292;2023-03-01T14:53:27;11.30;;;2.03;;
37843;SDS011;63793;57.632;18.292;2023-03-01T14:56:03;18.40;;;2.60;;
37843;SDS011;63793;57.632;18.292;2023-03-01T14:58:31;15.55;;;2.38;;
37843;SDS011;63793;57.632;18.292;2023-03-01T15:01:00;13.10;;;1.63;;
37843;SDS011;63793;57.632;18.292;2023-03-01T15:06:05;19.88;;;1.52;;
37843;SDS011;63793;57.632;18.292;2023-03-01T15:08:33;9.80;;;1.60;;
37843;SDS011;63793;57.632;18.292;2023-03-01T15:11:16;14.65;;;2.83;;
37843;SDS011;63793;57.632;18.292;2023-03-01T15:13:51;7.97;;;1.05;;
37843;SDS011;63793;57.632;18.292;2023-03-01T15:16:19;14.55;;;2.70;;
37843;SDS011;63793;57.632;18.292;2023-03-01T15:18:54;13.00;;;1.85;;
37843;SDS011;63793;57.632;18.292;2023-03-01T15:21:27;11.30;;;1.88;;
37843;SDS011;63793;57.632;18.292;2023-03-01T15:29:29;23.40;;;2.33;;
37843;SDS011;63793;57.632;18.292;2023-03-01T15:32:00;23.90;;;2.67;;
37843;SDS011;63793;57.632;18.292;2023-03-01T15:34:31;18.55;;;2.17;;
37843;SDS011;63793;57.632;18.292;2023-03-01T15:36:59;25.08;;;2.47;;
37843;SDS011;63793;57.632;18.292;2023-03-01T15:39:41;12.13;;;1.90;;
37843;SDS011;63793;57.632;18.292;2023-03-01T15:42:35;14.80;;;2.92;;
37843;SDS011;63793;57.632;18.292;2023-03-01T15:47:47;17.55;;;1.90;;
37843;SDS011;63793;57.632;18.292;2023-03-01T15:50:16;16.02;;;1.65;;
37843;SDS011;63793;57.632;18.292;2023-03-01T15:52:47;13.75;;;1.98;;
37843;SDS011;63793;57.632;18.292;2023-03-01T15:55:16;18.52;;;2.45;;
37843;SDS011;63793;57.632;18.292;2023-03-01T15:58:04;17.83;;;2.88;;
37843;SDS011;63793;57.632;18.292;2023-03-01T16:00:45;18.50;;;2.28;;
37843;SDS011;63793;57.632;18.292;2023-03-01T16:03:26;12.80;;;1.92;;
37843;SDS011;63793;57.632;18.292;2023-03-01T16:05:53;12.38;;;1.20;;
37843;SDS011;63793;57.632;18.292;2023-03-01T16:08:20;24.13;;;1.83;;
37843;SDS011;63793;57.632;18.292;2023-03-01T16:10:47;14.82;;;2.05;;
37843;SDS011;63793;57.632;18.292;2023-03-01T16:13:17;9.65;;;1.75;;
37843;SDS011;63793;57.632;18.292;2023-03-01T16:15:45;31.50;;;3.75;;
37843;SDS011;63793;57.632;18.292;2023-03-01T16:18:12;12.32;;;3.80;;
37843;SDS011;63793;57.632;18.292;2023-03-01T16:20:39;12.70;;;1.55;;
37843;SDS011;63793;57.632;18.292;2023-03-01T16:23:07;11.25;;;1.27;;
37843;SDS011;63793;57.632;18.292;2023-03-01T16:25:37;18.17;;;1.77;;
37843;SDS011;63793;57.632;18.292;2023-03-01T16:28:04;19.08;;;2.75;;
37843;SDS011;63793;57.632;18.292;2023-03-01T16:30:36;8.50;;;1.50;;
37843;SDS011;63793;57.632;18.292;2023-03-01T16:33:04;10.23;;;2.40;;
37843;SDS011;63793;57.632;18.292;2023-03-01T16:35:52;3.88;;;0.60;;
37843;SDS011;63793;57.632;18.292;2023-03-01T16:38:19;13.80;;;1.98;;
37843;SDS011;63793;57.632;18.292;2023-03-01T16:40:49;9.80;;;1.60;;
37843;SDS011;63793;57.632;18.292;2023-03-01T16:43:17;12.57;;;3.33;;
37843;SDS011;63793;57.632;18.292;2023-03-01T16:45:45;9.07;;;1.38;;
37843;SDS011;63793;57.632;18.292;2023-03-01T16:48:12;6.82;;;1.23;;
37843;SDS011;63793;57.632;18.292;2023-03-01T16:50:40;9.55;;;1.33;;
37843;SDS011;63793;57.632;18.292;2023-03-01T16:53:07;11.50;;;1.38;;
37843;SDS011;63793;57.632;18.292;2023-03-01T16:55:34;8.77;;;0.73;;
37843;SDS011;63793;57.632;18.292;2023-03-01T16:58:01;6.80;;;1.98;;
37843;SDS011;63793;57.632;18.292;2023-03-01T17:00:30;11.02;;;3.70;;
37843;SDS011;63793;57.632;18.292;2023-03-01T17:02:57;15.55;;;3.85;;